createdAt,value
2022-12-07T00:02:06.019Z,100690.66
2022-12-07T00:04:36.418Z,100694.50
2022-12-07T00:07:06.862Z,100688.43
2022-12-07T00:09:37.532Z,100685.48
2022-12-07T00:12:08.479Z,100690.36
2022-12-07T00:14:38.780Z,100689.84
2022-12-07T00:17:09.142Z,100680.12
2022-12-07T00:19:39.734Z,100672.98
2022-12-07T00:22:10.068Z,100672.12
2022-12-07T00:24:40.511Z,100668.46
2022-12-07T00:27:10.923Z,100668.30
2022-12-07T00:29:41.621Z,100668.16
2022-12-07T00:32:12.053Z,100668.85
2022-12-07T00:34:42.646Z,100663.82
2022-12-07T00:37:13.568Z,100662.09
2022-12-07T00:39:43.924Z,100657.57
2022-12-07T00:42:14.450Z,100655.67
2022-12-07T00:44:44.817Z,100658.29
2022-12-07T00:47:15.238Z,100655.00
2022-12-07T00:49:45.678Z,100654.66
2022-12-07T00:52:16.105Z,100647.73
2022-12-07T00:54:46.628Z,100647.05
2022-12-07T00:57:16.978Z,100645.48
2022-12-07T00:59:47.407Z,100647.75
2022-12-07T01:02:17.819Z,100651.05
2022-12-07T01:04:48.265Z,100652.29
2022-12-07T01:07:18.673Z,100658.55
2022-12-07T01:09:49.056Z,100655.42
2022-12-07T01:12:19.515Z,100654.20
2022-12-07T01:14:50.187Z,100649.17
2022-12-07T01:17:20.523Z,100644.99
2022-12-07T01:19:50.929Z,100642.56
2022-12-07T01:22:21.416Z,100643.61
2022-12-07T01:24:51.777Z,100642.38
2022-12-07T01:27:22.453Z,100640.30
2022-12-07T01:29:54.375Z,100637.87
2022-12-07T01:32:24.712Z,100636.64
2022-12-07T01:34:55.228Z,100639.44
2022-12-07T01:37:25.799Z,100644.32
2022-12-07T01:39:56.178Z,100642.44
2022-12-07T01:42:26.642Z,100642.80
2022-12-07T01:45:42.832Z,100648.38
2022-12-07T01:48:16.776Z,100654.29
2022-12-07T01:50:50.904Z,100653.79
2022-12-07T01:53:23.545Z,100653.80
2022-12-07T01:55:57.103Z,100653.29
2022-12-07T01:58:28.025Z,100654.53
2022-12-07T02:00:58.731Z,100651.06
2022-12-07T02:03:35.895Z,100647.41
2022-12-07T02:06:06.843Z,100643.05
2022-12-07T02:08:37.768Z,100639.25
2022-12-07T02:11:09.952Z,100638.23
2022-12-07T02:13:43.025Z,100633.56
2022-12-07T02:16:27.963Z,100630.28
2022-12-07T02:19:15.493Z,100627.88
2022-12-07T02:21:53.187Z,100622.34
2022-12-07T02:24:34.708Z,100613.98
2022-12-07T02:27:20.298Z,100610.67
2022-12-07T02:29:56.890Z,100617.27
2022-12-07T02:32:36.203Z,100617.27
2022-12-07T02:35:11.597Z,100613.98
2022-12-07T02:37:50.521Z,100623.38
2022-12-07T02:40:27.112Z,100629.28
2022-12-07T02:43:04.457Z,100634.14
2022-12-07T02:45:37.034Z,100635.70
2022-12-07T02:48:09.140Z,100633.78
2022-12-07T02:50:39.592Z,100634.83
2022-12-07T02:53:33.959Z,100636.02
2022-12-07T02:56:09.331Z,100631.69
2022-12-07T02:58:52.407Z,100625.60
2022-12-07T03:01:34.647Z,100623.84
2022-12-07T03:04:17.816Z,100616.36
2022-12-07T03:06:55.628Z,100614.08
2022-12-07T03:09:34.975Z,100610.72
2022-12-07T03:12:13.645Z,100605.27
2022-12-07T03:14:48.972Z,100604.87
2022-12-07T03:17:23.961Z,100604.80
2022-12-07T03:20:00.124Z,100606.48
2022-12-07T03:22:33.746Z,100605.02
2022-12-07T03:25:08.391Z,100604.63
2022-12-07T03:27:42.654Z,100602.30
2022-12-07T03:30:18.682Z,100594.92
2022-12-07T03:32:54.745Z,100587.39
2022-12-07T03:35:29.703Z,100585.42
2022-12-07T03:38:08.444Z,100583.47
2022-12-07T03:40:43.019Z,100579.42
2022-12-07T03:43:14.137Z,100582.69
2022-12-07T03:45:48.782Z,100584.41
2022-12-07T03:48:26.224Z,100583.15
2022-12-07T03:51:15.919Z,100584.67
2022-12-07T03:53:53.568Z,100582.73
2022-12-07T03:56:24.563Z,100584.95
2022-12-07T03:58:55.965Z,100583.70
2022-12-07T04:01:26.009Z,100579.15
2022-12-07T04:03:56.530Z,100577.36
2022-12-07T04:06:26.980Z,100572.46
2022-12-07T04:08:57.391Z,100569.52
2022-12-07T04:11:27.913Z,100571.60
2022-12-07T04:14:15.955Z,100576.13
2022-12-07T04:16:46.621Z,100576.63
2022-12-07T04:19:17.915Z,100573.29
2022-12-07T04:21:48.711Z,100571.16
2022-12-07T04:24:19.522Z,100569.23
2022-12-07T04:26:50.420Z,100569.41
2022-12-07T04:29:21.504Z,100577.41
2022-12-07T04:31:52.492Z,100580.17
2022-12-07T04:34:23.485Z,100579.65
2022-12-07T04:36:53.967Z,100584.33
2022-12-07T04:39:27.611Z,100584.34
2022-12-07T04:41:59.260Z,100582.63
2022-12-07T04:44:30.584Z,100581.45
2022-12-07T04:47:01.049Z,100580.25
2022-12-07T04:49:31.611Z,100580.29
2022-12-07T04:52:01.990Z,100584.34
2022-12-07T04:54:32.417Z,100584.56
2022-12-07T04:57:02.848Z,100584.44
2022-12-07T04:59:33.196Z,100580.83
2022-12-07T05:02:03.748Z,100581.57
2022-12-07T05:04:34.295Z,100579.73
2022-12-07T05:07:04.765Z,100578.39
2022-12-07T05:09:35.232Z,100582.10
2022-12-07T05:12:05.657Z,100581.98
2022-12-07T05:14:36.023Z,100583.95
2022-12-07T05:17:06.413Z,100584.16
2022-12-07T05:19:36.743Z,100584.92
2022-12-07T05:22:07.109Z,100585.30
2022-12-07T05:24:37.498Z,100590.21
2022-12-07T05:27:08.094Z,100593.39
2022-12-07T05:29:38.494Z,100589.79
2022-12-07T05:32:09.091Z,100590.17
2022-12-07T05:34:39.530Z,100590.02
2022-12-07T05:37:10.030Z,100582.59
2022-12-07T05:39:41.966Z,100581.58
2022-12-07T05:42:13.820Z,100587.00
2022-12-07T05:44:45.834Z,100587.21
2022-12-07T05:47:17.099Z,100586.58
2022-12-07T05:49:47.640Z,100584.84
2022-12-07T05:52:18.055Z,100588.14
2022-12-07T05:54:51.025Z,100588.67
2022-12-07T05:57:21.753Z,100584.67
2022-12-07T05:59:52.223Z,100584.02
2022-12-07T06:02:22.804Z,100586.84
2022-12-07T06:04:53.372Z,100585.48
2022-12-07T06:07:24.518Z,100588.31
2022-12-07T06:09:54.930Z,100587.64
2022-12-07T06:12:39.374Z,100584.04
2022-12-07T06:15:11.371Z,100581.45
2022-12-07T06:17:42.442Z,100583.08
2022-12-07T06:20:13.475Z,100579.66
2022-12-07T06:22:43.920Z,100580.02
2022-12-07T06:25:14.315Z,100580.61
2022-12-07T06:27:44.625Z,100579.58
2022-12-07T06:30:17.250Z,100580.50
2022-12-07T06:32:47.615Z,100582.60
2022-12-07T06:35:18.471Z,100578.27
2022-12-07T06:37:49.024Z,100581.95
2022-12-07T06:40:19.860Z,100578.85
2022-12-07T06:42:50.267Z,100584.06
2022-12-07T06:45:20.605Z,100583.05
2022-12-07T06:47:51.254Z,100584.14
2022-12-07T06:50:22.002Z,100585.54
2022-12-07T06:52:52.598Z,100586.09
2022-12-07T06:55:23.279Z,100590.29
2022-12-07T06:57:53.782Z,100587.67
2022-12-07T07:00:25.149Z,100583.33
2022-12-07T07:02:54.045Z,100591.50
2022-12-07T07:05:24.515Z,100588.17
2022-12-07T07:08:21.554Z,100591.09
2022-12-07T07:10:48.052Z,100596.80
2022-12-07T07:13:18.693Z,100595.59
2022-12-07T07:15:48.988Z,100596.61
2022-12-07T07:18:19.536Z,100599.19
2022-12-07T07:20:50.017Z,100598.85
2022-12-07T07:23:20.957Z,100598.14
2022-12-07T07:25:52.008Z,100601.79
2022-12-07T07:28:22.485Z,100601.92
2022-12-07T07:30:52.931Z,100602.77
2022-12-07T07:33:23.489Z,100605.68
2022-12-07T07:35:54.020Z,100604.41
2022-12-07T07:38:24.474Z,100602.10
2022-12-07T07:40:54.797Z,100601.02
2022-12-07T07:43:25.229Z,100601.33
2022-12-07T07:45:55.615Z,100603.20
2022-12-07T07:48:26.316Z,100606.80
2022-12-07T07:50:56.855Z,100611.98
2022-12-07T07:53:27.312Z,100610.73
2022-12-07T07:55:58.153Z,100614.20
2022-12-07T07:58:28.975Z,100617.34
2022-12-07T08:01:05.349Z,100612.65
2022-12-07T08:03:35.965Z,100611.76
2022-12-07T08:06:07.272Z,100618.35
2022-12-07T08:08:36.137Z,100623.73
2022-12-07T08:11:10.816Z,100620.25
2022-12-07T08:13:41.338Z,100624.42
2022-12-07T08:16:13.286Z,100623.73
2022-12-07T08:18:44.714Z,100621.30
2022-12-07T08:21:16.537Z,100623.59
2022-12-07T08:23:47.070Z,100623.23
2022-12-07T08:26:19.284Z,100626.36
2022-12-07T08:28:49.701Z,100626.52
2022-12-07T08:31:21.253Z,100621.45
2022-12-07T08:33:51.967Z,100619.66
2022-12-07T08:36:23.748Z,100621.16
2022-12-07T08:39:29.149Z,100620.39
2022-12-07T08:41:44.871Z,100622.23
2022-12-07T08:44:15.330Z,100624.61
2022-12-07T08:46:49.190Z,100624.89
2022-12-07T08:49:22.986Z,100624.12
2022-12-07T08:51:53.655Z,100624.77
2022-12-07T08:54:24.360Z,100621.59
2022-12-07T08:56:59.341Z,100619.45
2022-12-07T08:59:31.875Z,100621.83
2022-12-07T09:02:02.635Z,100622.11
2022-12-07T09:04:36.027Z,100621.90
2022-12-07T09:07:07.455Z,100621.86
2022-12-07T09:09:38.259Z,100623.90
2022-12-07T09:12:08.889Z,100626.81
2022-12-07T09:14:39.343Z,100627.10
2022-12-07T09:17:11.602Z,100626.72
2022-12-07T09:19:43.464Z,100627.36
2022-12-07T09:22:14.214Z,100623.68
2022-12-07T09:24:47.481Z,100622.46
2022-12-07T09:27:18.852Z,100625.19
2022-12-07T09:29:47.680Z,100627.39
2022-12-07T09:32:18.145Z,100631.70
2022-12-07T09:34:48.696Z,100632.53
2022-12-07T09:37:19.447Z,100633.21
2022-12-07T09:39:50.642Z,100634.81
2022-12-07T09:42:30.106Z,100633.59
2022-12-07T09:45:02.414Z,100632.92
2022-12-07T09:47:36.051Z,100632.41
2022-12-07T09:50:16.383Z,100629.66
2022-12-07T09:52:49.223Z,100629.49
2022-12-07T09:55:25.571Z,100628.07
2022-12-07T09:57:56.633Z,100625.39
2022-12-07T10:00:29.526Z,100620.44
2022-12-07T10:03:02.462Z,100615.98
2022-12-07T10:05:38.057Z,100614.65
2022-12-07T10:08:10.616Z,100614.90
2022-12-07T10:10:42.354Z,100611.89
2022-12-07T10:13:14.128Z,100612.34
2022-12-07T10:15:59.736Z,100607.75
2022-12-07T10:18:37.092Z,100602.96
2022-12-07T10:21:15.346Z,100600.48
2022-12-07T10:24:03.745Z,100600.09
2022-12-07T10:26:36.751Z,100597.61
2022-12-07T10:29:19.504Z,100594.83
2022-12-07T10:31:56.928Z,100593.60
2022-12-07T10:34:30.766Z,100597.95
2022-12-07T10:37:28.614Z,100591.79
2022-12-07T10:40:00.107Z,100589.11
2022-12-07T10:42:32.359Z,100590.46
2022-12-07T10:45:16.892Z,100590.79
2022-12-07T10:47:53.811Z,100587.95
2022-12-07T10:50:54.755Z,100586.69
2022-12-07T10:53:51.188Z,100585.25
2022-12-07T10:56:49.691Z,100585.92
2022-12-07T10:59:51.824Z,100579.42
2022-12-07T11:02:37.877Z,100577.66
2022-12-07T11:05:25.951Z,100576.95
2022-12-07T11:08:05.868Z,100575.20
2022-12-07T11:10:53.045Z,100575.70
2022-12-07T11:13:31.168Z,100576.39
2022-12-07T11:16:17.494Z,100572.39
2022-12-07T11:19:00.814Z,100563.63
2022-12-07T11:21:41.518Z,100556.59
2022-12-07T11:24:17.888Z,100554.67
2022-12-07T11:27:06.438Z,100549.27
2022-12-07T11:29:49.513Z,100547.00
2022-12-07T11:32:25.681Z,100545.08
2022-12-07T11:35:08.044Z,100544.02
2022-12-07T11:40:23.037Z,100534.16
2022-12-07T11:42:58.124Z,100533.23
2022-12-07T11:45:32.848Z,100529.84
2022-12-07T11:48:06.153Z,100524.34
2022-12-07T11:50:42.898Z,100523.02
2022-12-07T11:53:23.656Z,100516.62
2022-12-07T11:55:58.728Z,100516.81
2022-12-07T11:58:49.664Z,100512.11
2022-12-07T12:01:31.406Z,100511.76
2022-12-07T12:04:08.209Z,100510.21
2022-12-07T12:06:38.626Z,100508.89
2022-12-07T12:15:35.166Z,100503.55
2022-12-07T12:18:20.537Z,100501.01
2022-12-07T12:20:55.508Z,100501.68
2022-12-07T12:23:31.339Z,100499.95
2022-12-07T12:26:04.042Z,100492.92
2022-12-07T12:28:48.542Z,100489.83
2022-12-07T12:31:37.431Z,100491.21
2022-12-07T12:34:40.662Z,100491.90
2022-12-07T12:37:43.586Z,100490.00
2022-12-07T12:40:48.425Z,100485.00
2022-12-07T12:43:50.495Z,100483.66
2022-12-07T12:46:54.398Z,100482.23
2022-12-07T12:50:13.519Z,100478.86
2022-12-07T12:53:17.437Z,100477.77
2022-12-07T12:56:15.743Z,100474.17
2022-12-07T12:59:10.785Z,100474.04
2022-12-07T13:01:46.512Z,100472.14
2022-12-07T13:04:59.956Z,100467.27
2022-12-07T13:07:57.209Z,100464.13
2022-12-07T13:10:44.148Z,100461.34
2022-12-07T13:13:33.855Z,100461.66
2022-12-07T13:16:41.880Z,100459.92
2022-12-07T13:20:02.312Z,100459.92
2022-12-07T13:22:53.918Z,100455.89
2022-12-07T13:25:31.483Z,100448.40
2022-12-07T13:28:15.576Z,100446.67
2022-12-07T13:30:56.594Z,100448.85
2022-12-07T13:33:29.718Z,100449.41
2022-12-07T13:36:01.485Z,100449.50
2022-12-07T13:38:34.850Z,100447.83
2022-12-07T13:41:16.551Z,100446.98
2022-12-07T13:43:54.869Z,100442.48
2022-12-07T13:46:37.760Z,100435.83
2022-12-07T13:49:20.658Z,100428.80
2022-12-07T13:51:51.978Z,100420.02
2022-12-07T13:54:22.929Z,100417.98
2022-12-07T13:56:55.033Z,100421.11
2022-12-07T13:59:27.645Z,100421.35
2022-12-07T14:01:58.971Z,100419.20
2022-12-07T14:04:32.740Z,100423.71
2022-12-07T14:07:20.737Z,100420.96
2022-12-07T14:10:00.187Z,100422.96
2022-12-07T14:12:32.541Z,100423.60
2022-12-07T14:15:07.128Z,100430.65
2022-12-07T14:17:37.705Z,100431.42
2022-12-07T14:20:35.442Z,100428.70
2022-12-07T14:23:10.944Z,100429.97
2022-12-07T14:25:51.861Z,100431.74
2022-12-07T14:28:34.259Z,100431.77
2022-12-07T14:31:05.497Z,100432.75
2022-12-07T14:33:34.516Z,100430.72
2022-12-07T14:36:05.269Z,100434.10
2022-12-07T14:38:35.571Z,100433.09
2022-12-07T14:41:25.896Z,100433.48
2022-12-07T14:44:21.804Z,100431.30
2022-12-07T14:46:47.813Z,100430.32
2022-12-07T14:49:35.557Z,100427.05
2022-12-07T14:54:58.728Z,100428.20
2022-12-07T14:57:29.410Z,100426.64
2022-12-07T15:00:00.044Z,100424.20
2022-12-07T15:02:30.552Z,100425.09
2022-12-07T15:05:01.538Z,100420.02
2022-12-07T15:07:32.397Z,100421.25
2022-12-07T15:10:04.319Z,100423.02
2022-12-07T15:12:34.842Z,100419.55
2022-12-07T15:15:06.571Z,100415.90
2022-12-07T15:17:37.262Z,100417.84
2022-12-07T15:20:10.873Z,100414.38
2022-12-07T15:22:41.725Z,100416.48
2022-12-07T15:25:14.442Z,100416.35
2022-12-07T15:27:45.365Z,100413.09
2022-12-07T15:30:16.400Z,100411.73
2022-12-07T15:32:50.696Z,100413.65
2022-12-07T15:35:21.983Z,100407.58
2022-12-07T15:37:52.683Z,100407.96
2022-12-07T15:40:23.414Z,100403.48
2022-12-07T15:42:53.933Z,100397.75
2022-12-07T15:45:24.581Z,100399.16
2022-12-07T15:48:26.969Z,100399.17
2022-12-07T15:50:45.207Z,100401.86
2022-12-07T15:53:16.154Z,100395.80
2022-12-07T15:55:46.673Z,100393.94
2022-12-07T15:58:17.599Z,100392.22
2022-12-07T16:00:48.996Z,100392.77
2022-12-07T16:03:17.912Z,100384.58
2022-12-07T16:05:54.338Z,100383.55
2022-12-07T16:08:24.868Z,100379.92
2022-12-07T16:10:55.391Z,100375.77
2022-12-07T16:13:25.982Z,100376.10
2022-12-07T16:15:56.500Z,100378.03
2022-12-07T16:18:26.984Z,100373.85
2022-12-07T16:20:57.569Z,100374.02
2022-12-07T16:23:28.200Z,100370.87
2022-12-07T16:26:05.291Z,100370.52
2022-12-07T16:28:35.696Z,100366.67
2022-12-07T16:31:08.846Z,100368.27
2022-12-07T16:33:40.163Z,100368.61
2022-12-07T16:36:10.232Z,100373.48
2022-12-07T16:38:41.376Z,100377.52
2022-12-07T16:41:12.734Z,100375.96
2022-12-07T16:43:41.664Z,100372.14
2022-12-07T16:46:12.452Z,100368.98
2022-12-07T16:48:43.531Z,100370.57
2022-12-07T16:51:15.743Z,100366.55
2022-12-07T16:53:46.129Z,100365.15
2022-12-07T16:56:19.379Z,100365.34
2022-12-07T16:58:50.696Z,100366.36
2022-12-07T17:01:25.818Z,100364.45
2022-12-07T17:03:56.425Z,100368.64
2022-12-07T17:06:28.513Z,100366.04
2022-12-07T17:09:00.093Z,100365.52
2022-12-07T17:11:32.919Z,100363.95
2022-12-07T17:14:21.320Z,100363.98
2022-12-07T17:16:51.865Z,100361.75
2022-12-07T17:19:22.442Z,100363.34
2022-12-07T17:21:52.812Z,100361.60
2022-12-07T17:24:23.468Z,100364.05
2022-12-07T17:26:54.041Z,100363.20
2022-12-07T17:29:24.695Z,100366.51
2022-12-07T17:31:55.235Z,100364.95
2022-12-07T17:34:25.649Z,100362.36
2022-12-07T17:36:56.480Z,100363.77
2022-12-07T17:39:26.977Z,100356.44
2022-12-07T17:42:15.234Z,100356.80
2022-12-07T17:44:46.351Z,100357.16
2022-12-07T17:47:18.171Z,100355.30
2022-12-07T17:49:49.305Z,100352.69
2022-12-07T17:52:45.707Z,100351.83
2022-12-07T17:55:16.446Z,100351.30
2022-12-07T17:57:47.222Z,100352.02
2022-12-07T18:00:19.724Z,100349.63
2022-12-07T18:02:50.321Z,100350.52
2022-12-07T18:05:21.289Z,100349.67
2022-12-07T18:07:53.118Z,100348.99
2022-12-07T18:10:24.080Z,100346.21
2022-12-07T18:13:15.313Z,100348.00
2022-12-07T18:15:45.866Z,100345.06
2022-12-07T18:18:16.279Z,100343.70
2022-12-07T18:20:47.387Z,100344.23
2022-12-07T18:23:17.710Z,100348.07
2022-12-07T18:25:51.524Z,100344.95
2022-12-07T18:28:22.010Z,100341.67
2022-12-07T18:31:14.944Z,100340.43
2022-12-07T18:33:43.500Z,100335.55
2022-12-07T18:36:14.207Z,100336.41
2022-12-07T18:38:44.160Z,100333.11
2022-12-07T18:41:15.818Z,100330.52
2022-12-07T18:43:46.203Z,100330.02
2022-12-07T18:46:19.348Z,100332.30
2022-12-07T18:48:51.583Z,100335.27
2022-12-07T18:51:23.568Z,100340.52
2022-12-07T18:53:58.447Z,100338.45
2022-12-07T18:56:29.393Z,100337.26
2022-12-07T18:59:20.140Z,100336.60
2022-12-07T19:01:52.904Z,100330.52
2022-12-07T19:04:24.048Z,100333.16
2022-12-07T19:06:54.451Z,100328.33
2022-12-07T19:09:25.049Z,100326.46
2022-12-07T19:11:56.983Z,100326.14
2022-12-07T19:14:30.437Z,100325.13
2022-12-07T19:17:03.410Z,100322.91
2022-12-07T19:19:35.990Z,100317.73
2022-12-07T19:22:08.290Z,100318.63
2022-12-07T19:24:39.104Z,100317.61
2022-12-07T19:27:10.359Z,100314.52
2022-12-07T19:29:41.490Z,100316.80
2022-12-07T19:32:12.747Z,100311.79
2022-12-07T19:34:45.951Z,100313.76
2022-12-07T19:37:23.661Z,100313.27
2022-12-07T19:39:54.464Z,100307.92
2022-12-07T19:42:25.954Z,100307.25
2022-12-07T19:44:54.998Z,100306.41
2022-12-07T19:47:26.086Z,100307.30
2022-12-07T19:49:56.643Z,100307.39
2022-12-07T19:52:30.032Z,100311.24
2022-12-07T19:55:04.329Z,100312.51
2022-12-07T19:57:35.178Z,100312.89
2022-12-07T20:00:07.520Z,100314.66
2022-12-07T20:02:38.090Z,100306.16
2022-12-07T20:05:10.000Z,100300.77
2022-12-07T20:07:41.643Z,100305.35
2022-12-07T20:10:11.154Z,100302.42
2022-12-07T20:12:59.512Z,100301.92
2022-12-07T20:15:29.869Z,100297.45
2022-12-07T20:18:00.213Z,100290.17
2022-12-07T20:20:30.714Z,100292.31
2022-12-07T20:23:01.364Z,100295.11
2022-12-07T20:25:33.788Z,100293.89
2022-12-07T20:28:05.815Z,100294.24
2022-12-07T20:30:36.473Z,100290.42
2022-12-07T20:33:06.992Z,100291.46
2022-12-07T20:35:37.524Z,100290.60
2022-12-07T20:38:07.869Z,100291.63
2022-12-07T20:40:39.115Z,100291.80
2022-12-07T20:43:11.069Z,100292.15
2022-12-07T20:45:48.125Z,100295.66
2022-12-07T20:48:19.174Z,100294.08
2022-12-07T20:50:50.001Z,100297.91
2022-12-07T20:53:20.711Z,100301.92
2022-12-07T20:55:51.267Z,100297.95
2022-12-07T20:58:21.598Z,100299.48
2022-12-07T21:00:51.955Z,100300.38
2022-12-07T21:03:22.364Z,100296.55
2022-12-07T21:05:52.765Z,100289.41
2022-12-07T21:08:23.237Z,100284.21
2022-12-07T21:10:53.775Z,100276.20
2022-12-07T21:13:24.232Z,100262.98
2022-12-07T21:15:55.539Z,100263.53
2022-12-07T21:18:25.984Z,100264.26
2022-12-07T21:20:56.504Z,100259.39
2022-12-07T21:23:26.949Z,100261.32
2022-12-07T21:25:57.348Z,100260.61
2022-12-07T21:28:28.263Z,100258.51
2022-12-07T21:31:16.696Z,100255.20
2022-12-07T21:33:48.690Z,100254.18
2022-12-07T21:36:21.651Z,100254.88
2022-12-07T21:38:52.398Z,100252.27
2022-12-07T21:41:24.778Z,100249.89
2022-12-07T21:43:55.694Z,100243.66
2022-12-07T21:46:33.386Z,100245.25
2022-12-07T21:49:07.207Z,100241.61
2022-12-07T21:51:38.154Z,100247.02
2022-12-07T21:54:08.875Z,100244.94
2022-12-07T21:56:41.653Z,100249.13
2022-12-07T21:59:15.066Z,100243.42
2022-12-07T22:01:48.528Z,100243.98
2022-12-07T22:04:21.358Z,100239.44
2022-12-07T22:06:52.827Z,100236.67
2022-12-07T22:09:24.371Z,100232.84
2022-12-07T22:11:54.912Z,100237.05
2022-12-07T22:14:43.034Z,100237.43
2022-12-07T22:17:13.414Z,100236.08
2022-12-07T22:19:43.860Z,100236.95
2022-12-07T22:22:17.281Z,100234.00
2022-12-07T22:24:48.393Z,100231.95
2022-12-07T22:27:19.257Z,100224.84
2022-12-07T22:29:50.389Z,100222.09
2022-12-07T22:32:49.673Z,100217.75
2022-12-07T22:35:11.840Z,100220.36
2022-12-07T22:37:42.293Z,100222.11
2022-12-07T22:40:15.697Z,100224.41
2022-12-07T22:42:46.212Z,100226.13
2022-12-07T22:45:18.208Z,100219.20
2022-12-07T22:47:48.581Z,100211.36
2022-12-07T22:50:19.233Z,100204.07
2022-12-07T22:52:49.576Z,100203.19
2022-12-07T22:55:20.003Z,100198.67
2022-12-07T22:57:50.304Z,100194.86
2022-12-07T23:00:23.239Z,100193.84
2022-12-07T23:02:53.921Z,100192.45
2022-12-07T23:05:24.511Z,100189.15
2022-12-07T23:07:55.027Z,100187.77
2022-12-07T23:10:25.600Z,100187.95
2022-12-07T23:13:13.749Z,100182.75
2022-12-07T23:15:44.234Z,100182.95
2022-12-07T23:18:14.683Z,100182.45
2022-12-07T23:20:45.117Z,100184.55
2022-12-07T23:23:15.467Z,100178.45
2022-12-07T23:25:45.927Z,100176.17
2022-12-07T23:28:16.267Z,100172.18
2022-12-07T23:30:46.695Z,100174.09
2022-12-07T23:33:17.151Z,100176.73
2022-12-07T23:35:47.573Z,100176.91
2022-12-07T23:38:17.901Z,100173.61
2022-12-07T23:40:48.294Z,100173.95
2022-12-07T23:43:18.734Z,100173.30
2022-12-07T23:45:49.415Z,100175.20
2022-12-07T23:48:19.825Z,100172.95
2022-12-07T23:50:50.294Z,100171.96
2022-12-07T23:53:20.645Z,100170.06
2022-12-07T23:55:50.948Z,100166.60
2022-12-07T23:58:21.684Z,100167.13
